sensor_id;sensor_type;location;lat;lon;timestamp;pressure;altitude;pressure_sealevel;temperature;humidity
76827;BME280;65788;52.284;20.890;2023-10-19T00:00:23;100017.50;;;18.57;43.43
76827;BME280;65788;52.284;20.890;2023-10-19T00:03:12;100010.88;;;18.54;43.48
76827;BME280;65788;52.284;20.890;2023-10-19T00:05:45;100006.33;;;18.54;43.47
76827;BME280;65788;52.284;20.890;2023-10-19T00:08:13;100003.46;;;18.53;43.41
76827;BME280;65788;52.284;20.890;2023-10-19T00:10:50;100001.69;;;18.53;43.43
76827;BME280;65788;52.284;20.890;2023-10-19T00:13:32;99993.27;;;18.50;43.53
76827;BME280;65788;52.284;20.890;2023-10-19T00:15:59;99989.61;;;18.50;43.49
76827;BME280;65788;52.284;20.890;2023-10-19T00:18:26;99987.23;;;18.47;43.52
76827;BME280;65788;52.284;20.890;2023-10-19T00:20:54;99984.27;;;18.46;43.49
76827;BME280;65788;52.284;20.890;2023-10-19T00:23:53;99981.62;;;18.47;43.41
76827;BME280;65788;52.284;20.890;2023-10-19T00:26:24;99979.52;;;18.46;43.45
76827;BME280;65788;52.284;20.890;2023-10-19T00:28:52;99985.81;;;18.44;43.51
76827;BME280;65788;52.284;20.890;2023-10-19T00:31:23;99983.16;;;18.39;43.59
76827;BME280;65788;52.284;20.890;2023-10-19T00:33:50;99978.95;;;18.40;43.55
76827;BME280;65788;52.284;20.890;2023-10-19T00:36:19;99975.75;;;18.41;43.47
76827;BME280;65788;52.284;20.890;2023-10-19T00:38:47;99978.42;;;18.40;43.51
76827;BME280;65788;52.284;20.890;2023-10-19T00:41:22;99974.66;;;18.38;43.51
76827;BME280;65788;52.284;20.890;2023-10-19T00:43:54;99976.34;;;18.35;43.53
76827;BME280;65788;52.284;20.890;2023-10-19T00:46:25;99976.30;;;18.36;43.51
76827;BME280;65788;52.284;20.890;2023-10-19T00:49:18;99972.27;;;18.34;43.50
76827;BME280;65788;52.284;20.890;2023-10-19T00:51:55;99971.35;;;18.32;43.54
76827;BME280;65788;52.284;20.890;2023-10-19T00:54:32;99970.98;;;18.34;43.43
76827;BME280;65788;52.284;20.890;2023-10-19T00:57:03;99963.88;;;18.32;43.44
76827;BME280;65788;52.284;20.890;2023-10-19T00:59:41;99961.13;;;18.30;43.47
76827;BME280;65788;52.284;20.890;2023-10-19T01:02:31;99954.20;;;18.29;43.48
76827;BME280;65788;52.284;20.890;2023-10-19T01:04:58;99953.92;;;18.29;43.44
76827;BME280;65788;52.284;20.890;2023-10-19T01:07:28;99956.98;;;18.26;43.47
76827;BME280;65788;52.284;20.890;2023-10-19T01:09:58;99948.14;;;18.29;43.40
76827;BME280;65788;52.284;20.890;2023-10-19T01:12:26;99941.61;;;18.25;43.41
76827;BME280;65788;52.284;20.890;2023-10-19T01:15:11;99943.65;;;18.21;43.49
76827;BME280;65788;52.284;20.890;2023-10-19T01:17:47;99935.29;;;18.22;43.43
76827;BME280;65788;52.284;20.890;2023-10-19T01:20:26;99934.13;;;18.24;43.38
76827;BME280;65788;52.284;20.890;2023-10-19T01:22:57;99933.84;;;18.23;43.35
76827;BME280;65788;52.284;20.890;2023-10-19T01:25:57;99934.15;;;18.21;43.36
76827;BME280;65788;52.284;20.890;2023-10-19T01:28:32;99935.19;;;18.19;43.38
76827;BME280;65788;52.284;20.890;2023-10-19T01:31:12;99929.02;;;18.18;43.37
76827;BME280;65788;52.284;20.890;2023-10-19T01:34:01;99926.69;;;18.20;43.30
76827;BME280;65788;52.284;20.890;2023-10-19T01:36:35;99921.35;;;18.18;43.33
76827;BME280;65788;52.284;20.890;2023-10-19T01:39:11;99920.64;;;18.16;43.33
76827;BME280;65788;52.284;20.890;2023-10-19T01:41:39;99918.69;;;18.16;43.30
76827;BME280;65788;52.284;20.890;2023-10-19T01:44:08;99918.39;;;18.15;43.32
76827;BME280;65788;52.284;20.890;2023-10-19T01:46:39;99911.63;;;18.13;43.31
76827;BME280;65788;52.284;20.890;2023-10-19T01:49:06;99906.22;;;18.14;43.28
76827;BME280;65788;52.284;20.890;2023-10-19T01:51:35;99902.88;;;18.12;43.31
76827;BME280;65788;52.284;20.890;2023-10-19T01:54:06;99905.92;;;18.13;43.25
76827;BME280;65788;52.284;20.890;2023-10-19T01:56:34;99906.49;;;18.12;43.24
76827;BME280;65788;52.284;20.890;2023-10-19T01:59:03;99906.13;;;18.11;43.23
76827;BME280;65788;52.284;20.890;2023-10-19T02:01:31;99906.70;;;18.06;43.28
76827;BME280;65788;52.284;20.890;2023-10-19T02:04:03;99900.48;;;18.09;43.22
76827;BME280;65788;52.284;20.890;2023-10-19T02:06:33;99899.02;;;18.08;43.19
76827;BME280;65788;52.284;20.890;2023-10-19T02:09:03;99902.23;;;18.07;43.20
76827;BME280;65788;52.284;20.890;2023-10-19T02:11:36;99895.95;;;18.08;43.14
76827;BME280;65788;52.284;20.890;2023-10-19T02:14:04;99894.27;;;18.05;43.17
76827;BME280;65788;52.284;20.890;2023-10-19T02:16:45;99891.21;;;18.04;43.15
76827;BME280;65788;52.284;20.890;2023-10-19T02:19:14;99888.52;;;18.02;43.18
76827;BME280;65788;52.284;20.890;2023-10-19T02:21:41;99884.88;;;18.03;43.15
76827;BME280;65788;52.284;20.890;2023-10-19T02:24:09;99882.14;;;18.00;43.17
76827;BME280;65788;52.284;20.890;2023-10-19T02:26:42;99881.08;;;18.00;43.14
76827;BME280;65788;52.284;20.890;2023-10-19T02:29:10;99887.08;;;17.99;43.12
76827;BME280;65788;52.284;20.890;2023-10-19T02:31:38;99884.13;;;18.00;43.07
76827;BME280;65788;52.284;20.890;2023-10-19T02:34:08;99878.09;;;17.99;43.10
76827;BME280;65788;52.284;20.890;2023-10-19T02:36:38;99870.78;;;17.99;43.06
76827;BME280;65788;52.284;20.890;2023-10-19T02:39:08;99870.70;;;17.98;43.07
76827;BME280;65788;52.284;20.890;2023-10-19T02:41:40;99864.66;;;17.98;43.05
76827;BME280;65788;52.284;20.890;2023-10-19T02:44:10;99867.30;;;17.97;43.02
76827;BME280;65788;52.284;20.890;2023-10-19T02:49:13;99867.34;;;17.97;42.98
76827;BME280;65788;52.284;20.890;2023-10-19T02:51:42;99863.41;;;17.93;43.03
76827;BME280;65788;52.284;20.890;2023-10-19T02:54:14;99861.85;;;17.95;42.96
76827;BME280;65788;52.284;20.890;2023-10-19T02:56:53;99855.09;;;17.95;42.96
76827;BME280;65788;52.284;20.890;2023-10-19T02:59:22;99854.54;;;17.95;42.93
76827;BME280;65788;52.284;20.890;2023-10-19T03:01:51;99852.08;;;17.94;42.93
76827;BME280;65788;52.284;20.890;2023-10-19T03:04:19;99847.69;;;17.92;42.94
76827;BME280;65788;52.284;20.890;2023-10-19T03:06:47;99846.63;;;17.91;43.13
76827;BME280;65788;52.284;20.890;2023-10-19T03:09:14;99845.34;;;17.92;43.34
76827;BME280;65788;52.284;20.890;2023-10-19T03:11:53;99836.87;;;17.92;43.45
76827;BME280;65788;52.284;20.890;2023-10-19T03:14:23;99840.07;;;17.90;43.59
76827;BME280;65788;52.284;20.890;2023-10-19T03:16:53;99832.50;;;17.90;43.66
76827;BME280;65788;52.284;20.890;2023-10-19T03:19:23;99831.08;;;17.91;43.73
76827;BME280;65788;52.284;20.890;2023-10-19T03:21:54;99832.20;;;17.89;43.82
76827;BME280;65788;52.284;20.890;2023-10-19T03:24:21;99829.94;;;17.89;43.85
76827;BME280;65788;52.284;20.890;2023-10-19T03:27:12;99828.52;;;17.89;43.83
76827;BME280;65788;52.284;20.890;2023-10-19T03:29:40;99824.03;;;17.87;43.86
76827;BME280;65788;52.284;20.890;2023-10-19T03:32:07;99826.09;;;17.86;43.88
76827;BME280;65788;52.284;20.890;2023-10-19T03:34:35;99824.52;;;17.85;43.85
76827;BME280;65788;52.284;20.890;2023-10-19T03:37:02;99817.38;;;17.85;43.87
76827;BME280;65788;52.284;20.890;2023-10-19T03:39:36;99815.52;;;17.86;43.85
76827;BME280;65788;52.284;20.890;2023-10-19T03:42:05;99811.04;;;17.84;44.03
76827;BME280;65788;52.284;20.890;2023-10-19T03:44:35;99806.73;;;17.83;44.09
76827;BME280;65788;52.284;20.890;2023-10-19T03:47:13;99802.64;;;17.83;44.02
76827;BME280;65788;52.284;20.890;2023-10-19T03:49:49;99795.23;;;17.84;44.01
76827;BME280;65788;52.284;20.890;2023-10-19T03:52:17;99785.16;;;17.87;43.86
76827;BME280;65788;52.284;20.890;2023-10-19T03:54:45;99780.25;;;17.95;43.72
76827;BME280;65788;52.284;20.890;2023-10-19T03:57:15;99776.90;;;17.98;43.67
76827;BME280;65788;52.284;20.890;2023-10-19T03:59:52;99769.87;;;17.99;43.63
76827;BME280;65788;52.284;20.890;2023-10-19T04:02:27;99765.32;;;18.06;43.49
76827;BME280;65788;52.284;20.890;2023-10-19T04:05:02;99758.52;;;18.20;43.27
76827;BME280;65788;52.284;20.890;2023-10-19T04:07:30;99759.38;;;18.31;43.05
76827;BME280;65788;52.284;20.890;2023-10-19T04:10:00;99757.56;;;18.41;42.87
76827;BME280;65788;52.284;20.890;2023-10-19T04:12:39;99748.62;;;18.50;42.68
76827;BME280;65788;52.284;20.890;2023-10-19T04:15:11;99749.71;;;18.59;42.54
76827;BME280;65788;52.284;20.890;2023-10-19T04:17:46;99740.30;;;18.65;42.44
76827;BME280;65788;52.284;20.890;2023-10-19T04:20:16;99738.66;;;18.72;42.32
76827;BME280;65788;52.284;20.890;2023-10-19T04:22:47;99733.22;;;18.78;42.24
76827;BME280;65788;52.284;20.890;2023-10-19T04:25:18;99734.02;;;18.85;42.12
76827;BME280;65788;52.284;20.890;2023-10-19T04:27:53;99725.16;;;18.87;42.09
76827;BME280;65788;52.284;20.890;2023-10-19T04:30:20;99728.12;;;18.93;42.01
76827;BME280;65788;52.284;20.890;2023-10-19T04:32:50;99720.38;;;18.96;41.96
76827;BME280;65788;52.284;20.890;2023-10-19T04:35:17;99721.64;;;18.99;41.92
76827;BME280;65788;52.284;20.890;2023-10-19T04:37:51;99716.95;;;19.02;41.88
76827;BME280;65788;52.284;20.890;2023-10-19T04:40:20;99716.16;;;19.06;41.84
76827;BME280;65788;52.284;20.890;2023-10-19T04:42:48;99714.98;;;19.10;41.75
76827;BME280;65788;52.284;20.890;2023-10-19T04:45:16;99708.08;;;19.13;41.69
76827;BME280;65788;52.284;20.890;2023-10-19T04:47:43;99710.25;;;19.16;41.67
76827;BME280;65788;52.284;20.890;2023-10-19T04:50:10;99706.34;;;19.20;41.62
76827;BME280;65788;52.284;20.890;2023-10-19T04:52:37;99701.89;;;19.21;41.60
76827;BME280;65788;52.284;20.890;2023-10-19T04:55:06;99697.66;;;19.27;41.47
76827;BME280;65788;52.284;20.890;2023-10-19T04:57:33;99693.31;;;19.28;41.47
76827;BME280;65788;52.284;20.890;2023-10-19T05:00:00;99689.15;;;19.30;41.44
76827;BME280;65788;52.284;20.890;2023-10-19T05:02:28;99689.39;;;19.33;41.42
76827;BME280;65788;52.284;20.890;2023-10-19T05:04:55;99693.36;;;19.36;41.38
76827;BME280;65788;52.284;20.890;2023-10-19T05:07:22;99695.48;;;19.39;41.33
76827;BME280;65788;52.284;20.890;2023-10-19T05:09:49;99697.76;;;19.42;41.28
76827;BME280;65788;52.284;20.890;2023-10-19T05:12:16;99697.52;;;19.46;41.21
76827;BME280;65788;52.284;20.890;2023-10-19T05:14:43;99697.02;;;19.49;41.12
76827;BME280;65788;52.284;20.890;2023-10-19T05:17:10;99694.35;;;19.50;41.10
76827;BME280;65788;52.284;20.890;2023-10-19T05:19:38;99698.84;;;19.53;41.03
76827;BME280;65788;52.284;20.890;2023-10-19T05:22:07;99695.20;;;19.56;40.97
76827;BME280;65788;52.284;20.890;2023-10-19T05:24:37;99690.95;;;19.57;40.94
76827;BME280;65788;52.284;20.890;2023-10-19T05:27:04;99696.21;;;19.59;40.90
76827;BME280;65788;52.284;20.890;2023-10-19T05:29:32;99696.02;;;19.60;40.78
76827;BME280;65788;52.284;20.890;2023-10-19T05:32:06;99692.80;;;19.60;40.72
76827;BME280;65788;52.284;20.890;2023-10-19T05:34:33;99692.34;;;19.59;40.73
76827;BME280;65788;52.284;20.890;2023-10-19T05:37:02;99694.65;;;19.58;40.71
76827;BME280;65788;52.284;20.890;2023-10-19T05:39:32;99694.09;;;19.58;41.21
76827;BME280;65788;52.284;20.890;2023-10-19T05:42:00;99695.30;;;19.57;41.75
76827;BME280;65788;52.284;20.890;2023-10-19T05:44:29;99702.48;;;19.58;41.90
76827;BME280;65788;52.284;20.890;2023-10-19T05:46:57;99696.36;;;19.60;41.87
76827;BME280;65788;52.284;20.890;2023-10-19T05:49:25;99691.20;;;19.62;41.87
76827;BME280;65788;52.284;20.890;2023-10-19T05:51:52;99693.33;;;19.65;41.88
76827;BME280;65788;52.284;20.890;2023-10-19T05:54:19;99696.30;;;19.69;41.90
76827;BME280;65788;52.284;20.890;2023-10-19T05:56:46;99696.72;;;19.76;41.88
76827;BME280;65788;52.284;20.890;2023-10-19T05:59:14;99696.82;;;19.81;41.85
76827;BME280;65788;52.284;20.890;2023-10-19T06:01:41;99692.57;;;19.85;41.83
76827;BME280;65788;52.284;20.890;2023-10-19T06:04:08;99686.41;;;19.87;41.78
76827;BME280;65788;52.284;20.890;2023-10-19T06:06:35;99680.99;;;19.91;41.73
76827;BME280;65788;52.284;20.890;2023-10-19T06:09:06;99678.95;;;19.95;41.65
76827;BME280;65788;52.284;20.890;2023-10-19T06:11:35;99676.21;;;19.98;41.57
76827;BME280;65788;52.284;20.890;2023-10-19T06:14:04;99679.52;;;19.99;41.52
76827;BME280;65788;52.284;20.890;2023-10-19T06:16:34;99676.59;;;20.02;41.45
76827;BME280;65788;52.284;20.890;2023-10-19T06:19:01;99677.55;;;20.06;41.37
76827;BME280;65788;52.284;20.890;2023-10-19T06:21:28;99679.33;;;20.09;41.27
76827;BME280;65788;52.284;20.890;2023-10-19T06:23:57;99674.66;;;20.11;41.21
76827;BME280;65788;52.284;20.890;2023-10-19T06:26:24;99673.81;;;20.11;41.39
76827;BME280;65788;52.284;20.890;2023-10-19T06:28:51;99666.08;;;20.15;41.27
76827;BME280;65788;52.284;20.890;2023-10-19T06:31:23;99667.98;;;20.16;41.19
76827;BME280;65788;52.284;20.890;2023-10-19T06:33:50;99668.73;;;20.19;41.07
76827;BME280;65788;52.284;20.890;2023-10-19T06:36:17;99667.45;;;20.19;41.05
76827;BME280;65788;52.284;20.890;2023-10-19T06:38:45;99660.53;;;20.21;41.00
76827;BME280;65788;52.284;20.890;2023-10-19T06:41:13;99655.67;;;20.22;40.94
76827;BME280;65788;52.284;20.890;2023-10-19T06:43:41;99654.95;;;20.25;40.81
76827;BME280;65788;52.284;20.890;2023-10-19T06:46:08;99650.70;;;20.29;40.67
76827;BME280;65788;52.284;20.890;2023-10-19T06:48:38;99651.80;;;20.31;40.54
76827;BME280;65788;52.284;20.890;2023-10-19T06:51:06;99661.85;;;20.34;40.45
76827;BME280;65788;52.284;20.890;2023-10-19T06:53:33;99659.30;;;20.31;40.39
76827;BME280;65788;52.284;20.890;2023-10-19T06:56:01;99659.30;;;20.32;40.36
76827;BME280;65788;52.284;20.890;2023-10-19T06:58:28;99667.80;;;20.37;40.22
76827;BME280;65788;52.284;20.890;2023-10-19T07:00:58;99659.88;;;20.38;40.14
76827;BME280;65788;52.284;20.890;2023-10-19T07:03:35;99654.59;;;20.39;40.05
76827;BME280;65788;52.284;20.890;2023-10-19T07:06:03;99648.40;;;20.42;39.96
76827;BME280;65788;52.284;20.890;2023-10-19T07:08:31;99643.04;;;20.44;39.92
76827;BME280;65788;52.284;20.890;2023-10-19T07:10:58;99640.59;;;20.44;39.90
76827;BME280;65788;52.284;20.890;2023-10-19T07:13:25;99641.60;;;20.47;39.80
76827;BME280;65788;52.284;20.890;2023-10-19T07:15:52;99640.31;;;20.49;39.73
76827;BME280;65788;52.284;20.890;2023-10-19T07:18:19;99636.78;;;20.51;39.65
76827;BME280;65788;52.284;20.890;2023-10-19T07:20:46;99635.83;;;20.50;39.66
76827;BME280;65788;52.284;20.890;2023-10-19T07:23:16;99636.27;;;20.53;39.57
76827;BME280;65788;52.284;20.890;2023-10-19T07:25:49;99635.77;;;20.56;39.43
76827;BME280;65788;52.284;20.890;2023-10-19T07:28:22;99629.95;;;20.59;39.36
76827;BME280;65788;52.284;20.890;2023-10-19T07:30:52;99619.58;;;20.64;39.24
76827;BME280;65788;52.284;20.890;2023-10-19T07:33:19;99610.61;;;20.66;39.20
76827;BME280;65788;52.284;20.890;2023-10-19T07:35:48;99599.69;;;20.65;39.17
76827;BME280;65788;52.284;20.890;2023-10-19T07:38:19;99602.63;;;20.65;39.18
76827;BME280;65788;52.284;20.890;2023-10-19T07:40:49;99598.65;;;20.66;39.17
76827;BME280;65788;52.284;20.890;2023-10-19T07:43:19;99599.61;;;20.69;40.19
76827;BME280;65788;52.284;20.890;2023-10-19T07:45:47;99598.36;;;20.86;41.19
76827;BME280;65788;52.284;20.890;2023-10-19T07:48:15;99597.77;;;20.94;41.18
76827;BME280;65788;52.284;20.890;2023-10-19T07:50:43;99603.20;;;21.02;41.20
76827;BME280;65788;52.284;20.890;2023-10-19T07:53:12;99591.76;;;21.07;40.79
76827;BME280;65788;52.284;20.890;2023-10-19T07:55:41;99586.13;;;21.10;40.53
76827;BME280;65788;52.284;20.890;2023-10-19T07:58:08;99586.46;;;21.14;40.06
76827;BME280;65788;52.284;20.890;2023-10-19T08:00:36;99582.73;;;21.14;39.49
76827;BME280;65788;52.284;20.890;2023-10-19T08:03:05;99579.14;;;21.19;39.76
76827;BME280;65788;52.284;20.890;2023-10-19T08:05:33;99573.98;;;21.19;39.19
76827;BME280;65788;52.284;20.890;2023-10-19T08:08:03;99565.52;;;21.19;38.80
76827;BME280;65788;52.284;20.890;2023-10-19T08:10:32;99565.92;;;21.20;38.76
76827;BME280;65788;52.284;20.890;2023-10-19T08:13:00;99569.94;;;21.20;38.71
76827;BME280;65788;52.284;20.890;2023-10-19T08:15:27;99572.55;;;21.17;38.60
76827;BME280;65788;52.284;20.890;2023-10-19T08:17:56;99570.78;;;21.21;38.54
76827;BME280;65788;52.284;20.890;2023-10-19T08:20:23;99569.71;;;21.27;38.71
76827;BME280;65788;52.284;20.890;2023-10-19T08:22:54;99558.66;;;21.26;38.17
76827;BME280;65788;52.284;20.890;2023-10-19T08:25:24;99555.04;;;21.25;38.17
76827;BME280;65788;52.284;20.890;2023-10-19T08:28:01;99548.05;;;21.27;38.10
76827;BME280;65788;52.284;20.890;2023-10-19T08:30:28;99544.74;;;21.26;38.08
76827;BME280;65788;52.284;20.890;2023-10-19T08:32:55;99545.09;;;21.26;38.12
76827;BME280;65788;52.284;20.890;2023-10-19T08:35:24;99543.40;;;21.28;37.99
76827;BME280;65788;52.284;20.890;2023-10-19T08:37:55;99540.73;;;21.32;37.80
76827;BME280;65788;52.284;20.890;2023-10-19T08:40:26;99534.60;;;21.32;37.70
76827;BME280;65788;52.284;20.890;2023-10-19T08:42:54;99530.59;;;21.28;37.75
76827;BME280;65788;52.284;20.890;2023-10-19T08:45:22;99525.23;;;21.24;37.72
76827;BME280;65788;52.284;20.890;2023-10-19T08:47:54;99521.98;;;21.30;37.70
76827;BME280;65788;52.284;20.890;2023-10-19T08:50:27;99514.56;;;21.29;37.67
76827;BME280;65788;52.284;20.890;2023-10-19T08:52:57;99506.11;;;21.17;37.42
76827;BME280;65788;52.284;20.890;2023-10-19T08:55:25;99508.52;;;21.07;37.22
76827;BME280;65788;52.284;20.890;2023-10-19T08:57:52;99505.08;;;21.07;37.64
76827;BME280;65788;52.284;20.890;2023-10-19T09:00:19;99506.54;;;21.04;37.63
76827;BME280;65788;52.284;20.890;2023-10-19T09:02:52;99497.74;;;21.00;37.90
76827;BME280;65788;52.284;20.890;2023-10-19T09:05:20;99498.02;;;21.04;38.05
76827;BME280;65788;52.284;20.890;2023-10-19T09:07:49;99498.59;;;21.09;37.85
76827;BME280;65788;52.284;20.890;2023-10-19T09:10:24;99494.44;;;21.06;37.62
76827;BME280;65788;52.284;20.890;2023-10-19T09:12:59;99496.08;;;21.00;37.56
76827;BME280;65788;52.284;20.890;2023-10-19T09:15:29;99489.70;;;21.02;37.52
76827;BME280;65788;52.284;20.890;2023-10-19T09:18:16;99486.39;;;21.15;37.62
76827;BME280;65788;52.284;20.890;2023-10-19T09:20:51;99477.63;;;21.14;37.37
76827;BME280;65788;52.284;20.890;2023-10-19T09:23:25;99468.85;;;21.10;37.31
76827;BME280;65788;52.284;20.890;2023-10-19T09:25:58;99466.79;;;21.19;37.42
76827;BME280;65788;52.284;20.890;2023-10-19T09:28:25;99461.33;;;20.82;37.09
76827;BME280;65788;52.284;20.890;2023-10-19T09:30:52;99458.35;;;20.76;37.21
76827;BME280;65788;52.284;20.890;2023-10-19T09:33:21;99458.00;;;20.87;37.60
76827;BME280;65788;52.284;20.890;2023-10-19T09:35:50;99445.54;;;20.94;38.43
76827;BME280;65788;52.284;20.890;2023-10-19T09:38:23;99438.99;;;20.88;37.94
76827;BME280;65788;52.284;20.890;2023-10-19T09:40:54;99432.79;;;20.78;37.65
76827;BME280;65788;52.284;20.890;2023-10-19T09:43:45;99428.86;;;20.83;37.81
76827;BME280;65788;52.284;20.890;2023-10-19T09:46:20;99423.65;;;20.84;37.61
76827;BME280;65788;52.284;20.890;2023-10-19T09:48:48;99417.13;;;20.99;37.47
76827;BME280;65788;52.284;20.890;2023-10-19T09:51:17;99401.83;;;21.16;37.36
76827;BME280;65788;52.284;20.890;2023-10-19T09:53:53;99394.41;;;21.33;36.91
76827;BME280;65788;52.284;20.890;2023-10-19T09:56:30;99392.89;;;21.27;36.91
76827;BME280;65788;52.284;20.890;2023-10-19T09:59:05;99391.27;;;21.31;37.26
76827;BME280;65788;52.284;20.890;2023-10-19T10:04:35;99385.64;;;21.35;37.50
76827;BME280;65788;52.284;20.890;2023-10-19T10:07:04;99381.86;;;21.35;37.61
76827;BME280;65788;52.284;20.890;2023-10-19T10:09:42;99379.14;;;21.40;37.55
76827;BME280;65788;52.284;20.890;2023-10-19T10:12:20;99372.08;;;21.41;37.59
76827;BME280;65788;52.284;20.890;2023-10-19T10:15:02;99359.79;;;21.41;37.51
76827;BME280;65788;52.284;20.890;2023-10-19T10:17:34;99354.10;;;21.41;37.69
76827;BME280;65788;52.284;20.890;2023-10-19T10:23:16;99348.50;;;21.38;37.45
76827;BME280;65788;52.284;20.890;2023-10-19T10:25:45;99349.93;;;21.31;37.35
76827;BME280;65788;52.284;20.890;2023-10-19T10:28:16;99348.83;;;21.14;37.38
76827;BME280;65788;52.284;20.890;2023-10-19T10:36:06;99328.90;;;21.43;37.45
76827;BME280;65788;52.284;20.890;2023-10-19T10:38:34;99332.91;;;21.38;37.47
76827;BME280;65788;52.284;20.890;2023-10-19T10:41:04;99328.98;;;21.35;37.42
76827;BME280;65788;52.284;20.890;2023-10-19T10:43:31;99330.36;;;21.38;37.04
76827;BME280;65788;52.284;20.890;2023-10-19T10:46:05;99323.33;;;21.36;37.15
76827;BME280;65788;52.284;20.890;2023-10-19T10:48:32;99317.02;;;21.35;37.11
76827;BME280;65788;52.284;20.890;2023-10-19T10:51:01;99316.81;;;21.42;37.19
76827;BME280;65788;52.284;20.890;2023-10-19T10:53:28;99314.02;;;21.36;37.11
76827;BME280;65788;52.284;20.890;2023-10-19T10:56:00;99312.06;;;21.40;37.01
76827;BME280;65788;52.284;20.890;2023-10-19T10:58:27;99305.41;;;21.32;36.76
76827;BME280;65788;52.284;20.890;2023-10-19T11:00:53;99297.23;;;21.28;36.89
76827;BME280;65788;52.284;20.890;2023-10-19T11:03:22;99287.96;;;21.29;36.99
76827;BME280;65788;52.284;20.890;2023-10-19T11:05:51;99285.10;;;21.28;37.07
76827;BME280;65788;52.284;20.890;2023-10-19T11:08:17;99286.55;;;21.28;36.91
76827;BME280;65788;52.284;20.890;2023-10-19T11:10:48;99276.85;;;21.31;36.65
76827;BME280;65788;52.284;20.890;2023-10-19T11:13:17;99267.23;;;21.31;36.28
76827;BME280;65788;52.284;20.890;2023-10-19T11:15:54;99256.92;;;21.30;36.50
76827;BME280;65788;52.284;20.890;2023-10-19T11:18:36;99257.67;;;21.12;36.40
76827;BME280;65788;52.284;20.890;2023-10-19T11:21:07;99253.56;;;21.02;36.34
76827;BME280;65788;52.284;20.890;2023-10-19T11:23:39;99253.91;;;21.03;36.32
76827;BME280;65788;52.284;20.890;2023-10-19T11:26:11;99249.97;;;20.93;36.83
76827;BME280;65788;52.284;20.890;2023-10-19T11:28:39;99240.72;;;20.97;36.84
76827;BME280;65788;52.284;20.890;2023-10-19T11:31:21;99231.09;;;20.92;36.61
76827;BME280;65788;52.284;20.890;2023-10-19T11:33:50;99231.86;;;20.86;36.52
76827;BME280;65788;52.284;20.890;2023-10-19T11:36:18;99230.69;;;20.86;36.38
76827;BME280;65788;52.284;20.890;2023-10-19T11:38:50;99228.10;;;20.81;36.49
76827;BME280;65788;52.284;20.890;2023-10-19T11:41:22;99228.02;;;20.76;36.67
76827;BME280;65788;52.284;20.890;2023-10-19T11:43:49;99223.19;;;20.67;36.79
76827;BME280;65788;52.284;20.890;2023-10-19T11:46:17;99215.79;;;20.71;36.45
76827;BME280;65788;52.284;20.890;2023-10-19T11:48:45;99214.11;;;20.64;36.92
76827;BME280;65788;52.284;20.890;2023-10-19T11:51:15;99212.35;;;20.77;37.70
76827;BME280;65788;52.284;20.890;2023-10-19T11:53:42;99209.98;;;20.71;37.52
76827;BME280;65788;52.284;20.890;2023-10-19T11:56:13;99200.42;;;20.90;38.35
76827;BME280;65788;52.284;20.890;2023-10-19T11:58:40;99198.35;;;20.99;37.59
76827;BME280;65788;52.284;20.890;2023-10-19T12:01:09;99208.10;;;21.17;38.70
76827;BME280;65788;52.284;20.890;2023-10-19T12:03:39;99212.11;;;21.12;38.02
76827;BME280;65788;52.284;20.890;2023-10-19T12:06:08;99209.82;;;21.04;38.67
76827;BME280;65788;52.284;20.890;2023-10-19T12:08:35;99205.10;;;21.06;38.24
76827;BME280;65788;52.284;20.890;2023-10-19T12:11:03;99208.36;;;21.04;37.47
76827;BME280;65788;52.284;20.890;2023-10-19T12:13:31;99217.60;;;20.98;37.96
76827;BME280;65788;52.284;20.890;2023-10-19T12:16:01;99213.62;;;20.97;37.62
76827;BME280;65788;52.284;20.890;2023-10-19T12:18:31;99211.59;;;21.03;37.81
76827;BME280;65788;52.284;20.890;2023-10-19T12:20:58;99212.61;;;21.01;38.08
76827;BME280;65788;52.284;20.890;2023-10-19T12:23:26;99211.02;;;21.02;37.75
76827;BME280;65788;52.284;20.890;2023-10-19T12:25:55;99206.15;;;21.00;37.04
76827;BME280;65788;52.284;20.890;2023-10-19T12:28:22;99204.34;;;20.96;37.33
76827;BME280;65788;52.284;20.890;2023-10-19T12:30:51;99206.73;;;20.91;36.94
76827;BME280;65788;52.284;20.890;2023-10-19T12:33:18;99193.42;;;20.94;37.16
76827;BME280;65788;52.284;20.890;2023-10-19T12:35:46;99189.90;;;20.93;36.95
76827;BME280;65788;52.284;20.890;2023-10-19T12:38:19;99191.73;;;20.93;37.60
76827;BME280;65788;52.284;20.890;2023-10-19T12:40:48;99187.30;;;20.91;37.55
76827;BME280;65788;52.284;20.890;2023-10-19T12:43:15;99184.65;;;20.91;37.47
76827;BME280;65788;52.284;20.890;2023-10-19T12:45:46;99173.07;;;20.85;37.45
76827;BME280;65788;52.284;20.890;2023-10-19T12:48:24;99166.55;;;20.89;37.88
76827;BME280;65788;52.284;20.890;2023-10-19T12:50:57;99169.39;;;20.89;37.89
76827;BME280;65788;52.284;20.890;2023-10-19T12:53:24;99168.07;;;20.91;38.37
76827;BME280;65788;52.284;20.890;2023-10-19T12:55:51;99163.38;;;20.89;38.76
76827;BME280;65788;52.284;20.890;2023-10-19T12:58:19;99149.71;;;20.90;38.82
76827;BME280;65788;52.284;20.890;2023-10-19T13:00:47;99144.92;;;20.95;38.94
76827;BME280;65788;52.284;20.890;2023-10-19T13:03:15;99142.69;;;20.94;39.01
76827;BME280;65788;52.284;20.890;2023-10-19T13:05:45;99138.14;;;20.96;39.03
76827;BME280;65788;52.284;20.890;2023-10-19T13:08:13;99142.19;;;20.89;39.01
76827;BME280;65788;52.284;20.890;2023-10-19T13:10:43;99142.41;;;20.95;38.97
76827;BME280;65788;52.284;20.890;2023-10-19T13:13:13;99142.52;;;20.98;38.90
76827;BME280;65788;52.284;20.890;2023-10-19T13:15:42;99142.14;;;21.01;38.92
76827;BME280;65788;52.284;20.890;2023-10-19T13:18:12;99153.05;;;21.01;39.10
76827;BME280;65788;52.284;20.890;2023-10-19T13:20:40;99160.78;;;21.02;39.05